Bookmark and Share
Track history (hours):
 

Moscow Sea

Last reported at 2013-May-25 21:30 UTC. Time now 2014-Apr-23 19:03 UTC.
Position N 40°44' W 071°03'.
Warning: this ship's position is months out of date.

Length 182 m; draft 10.8 m.

Type: Ship. MMSI: 636010803.

NotesDate/timePositionNaut miles runAvg speedWind from/ knotsBaromVisibWave heightAir tempDewpointWater temp
2013-May-25 21:30N 40°44' W 071°03'1212.3
2013-May-25 20:33N 40°49' W 071°16'1110.7
2013-May-25 19:33N 40°57' W 071°25'1212.2
2013-May-25 18:33N 41°10' W 071°25'9 9.3
2013-May-25 17:33N 41°18' W 071°31'1110.6
2013-May-25 16:33N 41°16' W 071°45'1312.5
2013-May-25 15:33N 41°14' W 072°01'1211.6
2013-May-25 14:33N 41°11' W 072°16'1110.8
2013-May-25 13:33N 41°08' W 072°30'1211.6
2013-May-25 12:34N 41°10' W 072°45'6 5.8
2013-May-25 11:31N 41°12' W 072°52'0 0.1
2013-May-25 10:31N 41°12' W 072°52'0 0.2
2013-May-25 09:34N 41°12' W 072°53'5 5.4
2013-May-25 08:34N 41°17' W 072°55'0 0.0
2013-May-25 07:31N 41°17' W 072°55'0 0.0
2013-May-25 06:31N 41°17' W 072°55'0 0.0
2013-May-25 04:16N 41°17' W 072°55'0 0.0
2013-May-25 03:31N 41°17' W 072°55'0 0.0
2013-May-25 02:31N 41°17' W 072°55'0 0.0
2013-May-25 01:31N 41°17' W 072°55'0 0.0
2013-May-25 00:28N 41°17' W 072°55'0 0.0
2013-May-24 23:25N 41°17' W 072°55'0 0.0
2013-May-24 22:19N 41°17' W 072°55'0 0.0
2013-May-24 21:13N 41°17' W 072°55'0 0.0
2013-May-24 20:29N 41°17' W 072°55'0 0.0
2013-May-24 19:28N 41°17' W 072°55'0 0.0
2013-May-24 18:28N 41°17' W 072°55'0 0.0
2013-May-24 17:33N 41°17' W 072°55'0 0.0
2013-May-24 16:31N 41°17' W 072°55'0 0.0
2013-May-24 14:19N 41°17' W 072°55'0 0.0
2013-May-24 13:31N 41°17' W 072°55'0 0.0
2013-May-24 12:13N 41°17' W 072°55'0 0.0
2013-May-24 11:31N 41°17' W 072°55'0 0.0
2013-May-24 10:31N 41°17' W 072°55'0 0.0
2013-May-24 09:31N 41°17' W 072°55'0 0.0
2013-May-24 08:31N 41°17' W 072°55'0 0.0
2013-May-24 07:19N 41°17' W 072°55'0 0.0
2013-May-24 04:25N 41°17' W 072°55'0 0.0
2013-May-24 03:16N 41°17' W 072°55'0 0.0
2013-May-24 02:25N 41°17' W 072°55'  
2013-May-16 11:20N 40°29' W 073°39'0 0.0
2013-May-16 10:20N 40°29' W 073°39'0 0.0
2013-May-16 09:20N 40°29' W 073°39'0 0.0
2013-May-15 21:32N 40°29' W 073°39'  

Dump ship's entire track history

sailing weather and tide predictions

Moscow Sea — ELUY9 — position and weather